createdAt,value
2018-06-08T00:01:40.382Z,100545.80
2018-06-08T00:04:13.759Z,100552.19
2018-06-08T00:06:44.022Z,100553.23
2018-06-08T00:09:14.255Z,100557.45
2018-06-08T00:11:44.671Z,100556.33
2018-06-08T00:14:16.206Z,100554.48
2018-06-08T00:16:46.548Z,100553.05
2018-06-08T00:19:16.922Z,100556.54
2018-06-08T00:21:47.338Z,100551.69
2018-06-08T00:24:20.998Z,100545.02
2018-06-08T00:26:51.427Z,100545.37
2018-06-08T00:29:21.819Z,100549.42
2018-06-08T00:31:52.287Z,100544.29
2018-06-08T00:34:23.617Z,100544.80
2018-06-08T00:36:53.835Z,100552.30
2018-06-08T00:39:24.319Z,100545.72
2018-06-08T00:41:54.613Z,100540.80
2018-06-08T00:44:25.121Z,100533.78
2018-06-08T00:46:55.554Z,100537.75
2018-06-08T00:49:26.059Z,100535.44
2018-06-08T00:51:56.458Z,100538.65
2018-06-08T00:54:30.067Z,100534.33
2018-06-08T00:57:03.334Z,100544.07
2018-06-08T00:59:33.695Z,100539.97
2018-06-08T01:02:04.030Z,100536.27
2018-06-08T01:04:40.018Z,100535.34
2018-06-08T01:07:10.406Z,100529.33
2018-06-08T01:09:40.765Z,100531.52
2018-06-08T01:12:11.046Z,100530.76
2018-06-08T01:14:44.510Z,100533.54
2018-06-08T01:17:15.262Z,100533.33
2018-06-08T01:19:45.118Z,100520.35
2018-06-08T01:22:15.587Z,100518.73
2018-06-08T01:24:49.146Z,100520.91
2018-06-08T01:27:19.654Z,100525.63
2018-06-08T01:29:50.057Z,100524.48
2018-06-08T01:32:20.294Z,100530.08
2018-06-08T01:34:50.617Z,100530.40
2018-06-08T01:37:20.981Z,100536.17
2018-06-08T01:39:51.517Z,100535.99
2018-06-08T01:42:22.020Z,100530.80
2018-06-08T01:44:52.196Z,100526.19
2018-06-08T01:47:22.661Z,100529.02
2018-06-08T01:49:53.087Z,100531.18
2018-06-08T01:52:23.527Z,100529.73
2018-06-08T01:54:53.813Z,100528.18
2018-06-08T01:57:24.015Z,100531.11
2018-06-08T01:59:54.552Z,100538.20
2018-06-08T02:02:24.615Z,100545.33
2018-06-08T02:04:55.097Z,100539.62
2018-06-08T02:07:25.505Z,100546.09
2018-06-08T02:09:55.778Z,100547.77
2018-06-08T02:12:26.203Z,100552.27
2018-06-08T02:14:56.708Z,100546.94
2018-06-08T02:17:27.186Z,100549.06
2018-06-08T02:19:57.710Z,100550.88
2018-06-08T02:22:31.367Z,100549.50
2018-06-08T02:25:02.183Z,100547.84
2018-06-08T02:27:32.826Z,100546.84
2018-06-08T02:30:03.430Z,100547.41
2018-06-08T02:32:39.721Z,100548.69
2018-06-08T02:35:10.102Z,100561.47
2018-06-08T02:37:40.541Z,100560.47
2018-06-08T02:40:10.834Z,100553.31
2018-06-08T02:42:42.161Z,100554.94
2018-06-08T02:45:12.662Z,100555.54
2018-06-08T02:47:42.492Z,100554.64
2018-06-08T02:50:13.288Z,100561.29
2018-06-08T02:52:43.930Z,100560.23
2018-06-08T02:55:14.229Z,100557.89
2018-06-08T02:57:44.521Z,100564.05
2018-06-08T03:00:14.897Z,100561.08
2018-06-08T03:02:45.907Z,100575.32
2018-06-08T03:05:16.296Z,100582.08
2018-06-08T03:07:46.753Z,100573.67
2018-06-08T03:10:17.149Z,100580.41
2018-06-08T03:12:51.476Z,100583.73
2018-06-08T03:15:21.870Z,100581.73
2018-06-08T03:17:53.141Z,100583.75
2018-06-08T03:20:23.527Z,100589.53
2018-06-08T03:22:54.049Z,100589.63
2018-06-08T03:25:25.355Z,100593.49
2018-06-08T03:27:55.864Z,100593.83
2018-06-08T03:30:26.309Z,100582.14
2018-06-08T03:33:00.821Z,100584.53
2018-06-08T03:35:31.277Z,100587.42
2018-06-08T03:38:01.515Z,100599.94
2018-06-08T03:40:32.066Z,100599.29
2018-06-08T03:43:05.346Z,100599.41
2018-06-08T03:45:35.730Z,100601.33
2018-06-08T03:48:06.132Z,100598.33
2018-06-08T03:50:36.650Z,100587.73
2018-06-08T03:53:13.401Z,100582.17
2018-06-08T03:55:43.883Z,100585.91
2018-06-08T03:58:14.370Z,100581.81
2018-06-08T04:00:44.963Z,100586.27
2018-06-08T04:03:18.740Z,100585.09
2018-06-08T04:05:49.137Z,100586.64
2018-06-08T04:08:19.657Z,100587.36
2018-06-08T04:10:50.960Z,100589.75
2018-06-08T04:13:21.608Z,100594.55
2018-06-08T04:15:52.254Z,100593.18
2018-06-08T04:18:22.736Z,100595.16
2018-06-08T04:20:53.295Z,100602.08
2018-06-08T04:23:25.048Z,100600.37
2018-06-08T04:26:05.445Z,100600.05
2018-06-08T04:28:38.830Z,100605.11
2018-06-08T04:31:09.486Z,100607.16
2018-06-08T04:33:42.235Z,100607.30
2018-06-08T04:36:18.660Z,100615.95
2018-06-08T04:38:50.016Z,100616.30
2018-06-08T04:41:21.339Z,100615.40
2018-06-08T04:43:55.400Z,100613.33
2018-06-08T04:46:25.903Z,100612.73
2018-06-08T04:49:00.767Z,100621.37
2018-06-08T04:51:33.253Z,100622.70
2018-06-08T04:54:09.682Z,100621.72
2018-06-08T04:56:40.190Z,100623.39
2018-06-08T04:59:10.651Z,100628.98
2018-06-08T05:01:42.384Z,100625.09
2018-06-08T05:04:17.127Z,100621.67
2018-06-08T05:06:49.594Z,100620.86
2018-06-08T05:09:20.104Z,100616.14
2018-06-08T05:11:51.784Z,100618.77
2018-06-08T05:14:22.131Z,100617.52
2018-06-08T05:16:53.004Z,100621.11
2018-06-08T05:19:23.544Z,100623.70
2018-06-08T05:21:54.014Z,100629.58
2018-06-08T05:24:24.677Z,100626.67
2018-06-08T05:26:55.634Z,100622.06
2018-06-08T05:29:27.780Z,100621.52
2018-06-08T05:37:28.509Z,100625.92
2018-06-08T05:39:59.000Z,100623.37
2018-06-08T05:42:37.177Z,100618.11
2018-06-08T05:45:09.476Z,100618.46
2018-06-08T05:47:40.048Z,100620.61
2018-06-08T05:50:10.333Z,100614.59
2018-06-08T05:52:46.313Z,100616.59
2018-06-08T05:55:16.982Z,100620.90
2018-06-08T05:57:47.525Z,100624.27
2018-06-08T06:00:18.095Z,100619.14
2018-06-08T06:02:54.279Z,100624.17
2018-06-08T06:05:24.810Z,100619.15
2018-06-08T06:07:55.320Z,100624.53
2018-06-08T06:10:25.705Z,100624.47
2018-06-08T06:12:59.465Z,100625.64
2018-06-08T06:15:30.005Z,100626.87
2018-06-08T06:18:02.298Z,100627.02
2018-06-08T06:20:32.811Z,100628.57
2018-06-08T06:23:05.173Z,100626.14
2018-06-08T06:25:35.572Z,100631.16
2018-06-08T06:28:05.850Z,100624.28
2018-06-08T06:30:36.273Z,100620.58
2018-06-08T06:33:09.753Z,100624.14
2018-06-08T06:35:40.226Z,100623.03
2018-06-08T06:38:10.770Z,100627.36
2018-06-08T06:40:41.307Z,100621.53
2018-06-08T06:43:13.007Z,100627.38
2018-06-08T06:45:43.336Z,100635.19
2018-06-08T06:48:13.764Z,100625.93
2018-06-08T06:50:44.975Z,100625.99
2018-06-08T06:53:25.808Z,100628.95
2018-06-08T06:55:56.823Z,100622.48
2018-06-08T06:58:27.312Z,100623.19
2018-06-08T07:00:57.800Z,100613.44
2018-06-08T07:03:31.680Z,100625.80
2018-06-08T07:06:02.057Z,100627.77
2018-06-08T07:08:32.477Z,100630.00
2018-06-08T07:11:02.888Z,100627.05
2018-06-08T07:13:39.877Z,100617.48
2018-06-08T07:16:10.604Z,100618.36
2018-06-08T07:18:44.598Z,100616.41
2018-06-08T07:21:16.045Z,100626.13
2018-06-08T07:23:53.933Z,100623.00
2018-06-08T07:26:24.845Z,100631.12
2018-06-08T07:28:55.603Z,100617.66
2018-06-08T07:31:26.551Z,100618.50
2018-06-08T07:33:58.197Z,100624.11
2018-06-08T07:36:31.507Z,100624.41
2018-06-08T07:39:03.769Z,100626.58
2018-06-08T07:41:38.856Z,100634.26
2018-06-08T07:44:09.979Z,100632.02
2018-06-08T07:46:42.579Z,100629.17
2018-06-08T07:49:23.686Z,100620.92
2018-06-08T07:51:57.229Z,100630.04
2018-06-08T07:54:28.430Z,100632.89
2018-06-08T07:57:00.483Z,100632.98
2018-06-08T07:59:31.151Z,100641.14
2018-06-08T08:02:01.265Z,100634.85
2018-06-08T08:04:31.873Z,100635.73
2018-06-08T08:07:02.425Z,100633.52
2018-06-08T08:09:32.955Z,100643.05
2018-06-08T08:12:06.478Z,100639.03
2018-06-08T08:14:36.769Z,100636.53
2018-06-08T08:17:08.821Z,100640.09
2018-06-08T08:19:42.776Z,100636.64
2018-06-08T08:22:18.452Z,100642.72
2018-06-08T08:24:49.027Z,100632.76
2018-06-08T08:27:19.943Z,100640.58
2018-06-08T08:29:50.461Z,100642.20
2018-06-08T08:32:24.033Z,100638.83
2018-06-08T08:34:55.394Z,100641.30
2018-06-08T08:37:25.837Z,100646.47
2018-06-08T08:39:56.324Z,100648.06
2018-06-08T08:42:27.852Z,100639.78
2018-06-08T08:44:58.442Z,100640.26
2018-06-08T08:47:28.937Z,100639.22
2018-06-08T08:49:59.962Z,100638.39
2018-06-08T08:52:37.343Z,100634.44
2018-06-08T08:55:07.933Z,100630.73
2018-06-08T08:57:38.413Z,100631.13
2018-06-08T09:00:11.572Z,100631.05
2018-06-08T09:02:43.285Z,100624.25
2018-06-08T09:05:13.911Z,100633.24
2018-06-08T09:07:46.202Z,100629.52
2018-06-08T09:10:19.550Z,100631.45
2018-06-08T09:12:55.887Z,100635.95
2018-06-08T09:15:26.365Z,100625.14
2018-06-08T09:17:56.892Z,100626.78
2018-06-08T09:20:26.984Z,100622.34
2018-06-08T09:22:57.182Z,100623.91
2018-06-08T09:25:27.495Z,100630.63
2018-06-08T09:27:58.733Z,100629.84
2018-06-08T09:30:29.202Z,100624.02
2018-06-08T09:33:02.554Z,100620.69
2018-06-08T09:35:32.899Z,100617.44
2018-06-08T09:38:03.436Z,100617.98
2018-06-08T09:40:34.824Z,100620.30
2018-06-08T09:43:11.187Z,100605.63
2018-06-08T09:45:41.419Z,100613.72
2018-06-08T09:48:11.922Z,100600.78
2018-06-08T09:50:42.269Z,100605.11
2018-06-08T09:53:17.037Z,100601.17
2018-06-08T09:55:48.262Z,100607.45
2018-06-08T09:58:19.600Z,100608.20
2018-06-08T10:00:50.858Z,100603.22
2018-06-08T10:03:21.217Z,100599.39
2018-06-08T10:05:51.716Z,100599.81
2018-06-08T10:08:22.341Z,100598.30
2018-06-08T10:10:53.661Z,100599.21
2018-06-08T10:13:25.043Z,100597.36
2018-06-08T10:15:57.046Z,100596.42
2018-06-08T10:18:30.720Z,100596.66
2018-06-08T10:21:01.978Z,100589.11
2018-06-08T10:23:34.480Z,100587.88
2018-06-08T10:26:05.023Z,100584.51
2018-06-08T10:28:35.561Z,100584.59
2018-06-08T10:31:05.518Z,100579.95
2018-06-08T10:33:35.823Z,100576.44
2018-06-08T10:36:09.135Z,100574.57
2018-06-08T10:38:39.442Z,100572.24
2018-06-08T10:41:13.155Z,100578.05
2018-06-08T10:43:43.814Z,100571.20
2018-06-08T10:46:15.486Z,100571.32
2018-06-08T10:48:45.874Z,100569.25
2018-06-08T10:51:17.328Z,100569.80
2018-06-08T10:53:48.275Z,100566.65
2018-06-08T10:56:26.771Z,100560.06
2018-06-08T10:58:59.776Z,100552.91
2018-06-08T11:01:31.555Z,100558.39
2018-06-08T11:04:01.939Z,100557.23
2018-06-08T11:06:32.401Z,100557.00
2018-06-08T11:09:05.397Z,100564.30
2018-06-08T11:11:37.059Z,100558.08
2018-06-08T11:14:07.521Z,100560.56
2018-06-08T11:16:40.929Z,100562.09
2018-06-08T11:21:49.894Z,100553.91
2018-06-08T11:24:21.202Z,100561.88
2018-06-08T11:27:03.611Z,100551.48
2018-06-08T11:29:34.100Z,100541.97
2018-06-08T11:32:08.947Z,100547.55
2018-06-08T11:34:41.314Z,100541.06
2018-06-08T11:37:20.101Z,100542.89
2018-06-08T11:39:50.593Z,100540.34
2018-06-08T11:42:25.671Z,100543.73
2018-06-08T11:45:06.523Z,100539.90
2018-06-08T11:47:44.210Z,100539.26
2018-06-08T11:50:16.298Z,100540.44
2018-06-08T11:52:48.031Z,100526.55
2018-06-08T11:55:18.544Z,100528.23
2018-06-08T11:57:49.186Z,100526.91
2018-06-08T12:00:23.524Z,100518.69
2018-06-08T12:02:56.645Z,100517.44
2018-06-08T12:05:27.799Z,100508.93
2018-06-08T12:07:58.887Z,100513.03
2018-06-08T12:10:31.842Z,100509.59
2018-06-08T12:13:10.583Z,100493.48
2018-06-08T12:15:41.493Z,100492.88
2018-06-08T12:18:15.208Z,100496.77
2018-06-08T12:20:46.269Z,100492.45
2018-06-08T12:23:18.354Z,100493.08
2018-06-08T12:25:49.020Z,100491.37
2018-06-08T12:28:20.879Z,100489.06
2018-06-08T12:30:51.961Z,100489.53
2018-06-08T12:33:23.704Z,100484.59
2018-06-08T12:35:56.209Z,100484.75
2018-06-08T12:38:27.474Z,100484.53
2018-06-08T12:41:04.955Z,100483.64
2018-06-08T12:43:36.062Z,100481.63
2018-06-08T12:46:07.194Z,100473.16
2018-06-08T12:48:38.064Z,100468.34
2018-06-08T12:51:12.789Z,100472.81
2018-06-08T12:53:45.010Z,100472.23
2018-06-08T12:56:16.153Z,100467.66
2018-06-08T12:58:47.241Z,100459.38
2018-06-08T13:01:18.415Z,100451.73
2018-06-08T13:03:50.433Z,100450.63
2018-06-08T13:06:21.762Z,100451.77
2018-06-08T13:08:53.480Z,100453.08
2018-06-08T13:11:24.673Z,100452.88
2018-06-08T13:13:55.675Z,100445.04
2018-06-08T13:16:31.364Z,100440.31
2018-06-08T13:19:02.427Z,100438.47
2018-06-08T13:21:42.800Z,100436.30
2018-06-08T13:26:49.484Z,100432.37
2018-06-08T13:29:20.578Z,100425.88
2018-06-08T13:31:51.633Z,100426.89
2018-06-08T13:34:22.759Z,100427.80
2018-06-08T13:36:55.607Z,100432.01
2018-06-08T13:39:26.678Z,100430.67
2018-06-08T13:41:57.830Z,100432.63
2018-06-08T13:44:29.750Z,100432.63
2018-06-08T13:47:00.814Z,100428.61
2018-06-08T13:49:32.055Z,100426.75
2018-06-08T13:52:11.769Z,100423.60
2018-06-08T13:54:46.151Z,100419.33
2018-06-08T13:57:17.409Z,100418.22
2018-06-08T13:59:49.528Z,100411.39
2018-06-08T14:02:20.743Z,100403.28
2018-06-08T14:04:51.838Z,100393.41
2018-06-08T14:07:24.309Z,100391.07
2018-06-08T14:09:55.325Z,100386.06
2018-06-08T14:12:31.366Z,100387.86
2018-06-08T14:15:02.443Z,100384.25
2018-06-08T14:17:33.523Z,100374.25
2018-06-08T14:20:04.397Z,100384.61
2018-06-08T14:22:38.613Z,100376.67
2018-06-08T14:25:10.811Z,100372.55
2018-06-08T14:27:41.742Z,100370.91
2018-06-08T14:30:13.836Z,100371.02
2018-06-08T14:32:48.779Z,100366.00
2018-06-08T14:35:21.671Z,100364.98
2018-06-08T14:37:52.734Z,100361.83
2018-06-08T14:40:23.733Z,100354.38
2018-06-08T14:42:55.541Z,100362.13
2018-06-08T14:45:29.465Z,100359.89
2018-06-08T14:48:03.630Z,100347.22
2018-06-08T14:50:37.894Z,100341.05
2018-06-08T14:53:10.542Z,100337.74
2018-06-08T14:55:41.629Z,100332.51
2018-06-08T14:58:16.010Z,100328.75
2018-06-08T15:00:47.780Z,100327.81
2018-06-08T15:03:19.624Z,100330.52
2018-06-08T15:05:50.609Z,100320.42
2018-06-08T15:08:21.877Z,100323.48
2018-06-08T15:10:56.093Z,100313.61
2018-06-08T15:13:27.163Z,100318.97
2018-06-08T15:15:58.267Z,100317.19
2018-06-08T15:18:29.389Z,100312.95
2018-06-08T15:21:06.818Z,100313.56
2018-06-08T15:23:37.813Z,100309.21
2018-06-08T15:26:10.020Z,100308.48
2018-06-08T15:28:40.969Z,100312.03
2018-06-08T15:31:11.983Z,100312.20
2018-06-08T15:33:43.198Z,100306.11
2018-06-08T15:36:15.491Z,100307.02
2018-06-08T15:38:47.681Z,100308.70
2018-06-08T15:41:23.190Z,100303.52
2018-06-08T15:44:00.834Z,100302.03
2018-06-08T15:46:34.245Z,100293.65
2018-06-08T15:49:06.687Z,100293.39
2018-06-08T15:51:40.850Z,100295.89
2018-06-08T15:54:14.776Z,100290.69
2018-06-08T15:56:47.998Z,100293.79
2018-06-08T15:59:18.973Z,100291.14
2018-06-08T16:01:50.040Z,100290.09
2018-06-08T16:04:25.004Z,100286.62
2018-06-08T16:06:55.925Z,100287.66
2018-06-08T16:09:27.959Z,100294.29
2018-06-08T16:12:01.910Z,100297.20
2018-06-08T16:14:32.671Z,100306.55
2018-06-08T16:17:03.651Z,100304.16
2018-06-08T16:19:35.915Z,100302.69
2018-06-08T16:22:07.966Z,100309.83
2018-06-08T16:24:39.123Z,100305.67
2018-06-08T16:27:10.203Z,100302.73
2018-06-08T16:29:41.881Z,100293.77
2018-06-08T16:32:14.433Z,100292.51
2018-06-08T16:34:47.055Z,100293.09
2018-06-08T16:37:18.144Z,100294.95
2018-06-08T16:39:54.618Z,100296.06
2018-06-08T16:42:29.219Z,100299.16
2018-06-08T16:45:00.425Z,100298.88
2018-06-08T16:47:33.356Z,100296.98
2018-06-08T16:50:04.114Z,100305.59
2018-06-08T16:52:36.141Z,100306.23
2018-06-08T16:55:07.194Z,100311.15
2018-06-08T16:57:38.574Z,100310.91
2018-06-08T17:00:10.736Z,100314.09
2018-06-08T17:02:41.179Z,100316.39
2018-06-08T17:05:11.685Z,100319.75
2018-06-08T17:07:42.353Z,100315.36
2018-06-08T17:10:13.123Z,100318.92
2018-06-08T17:12:43.658Z,100325.52
2018-06-08T17:15:14.073Z,100339.27
2018-06-08T17:17:44.257Z,100336.61
2018-06-08T17:20:15.961Z,100333.72
2018-06-08T17:22:47.164Z,100333.94
2018-06-08T17:25:17.606Z,100328.63
2018-06-08T17:27:48.116Z,100332.65
2018-06-08T17:30:19.543Z,100322.16
2018-06-08T17:32:49.885Z,100327.41
2018-06-08T17:35:21.234Z,100329.75
2018-06-08T17:37:51.695Z,100333.08
2018-06-08T17:40:25.897Z,100339.88
2018-06-08T17:42:56.424Z,100338.55
2018-06-08T17:45:26.843Z,100334.73
2018-06-08T17:47:57.354Z,100337.30
2018-06-08T17:50:30.850Z,100341.25
2018-06-08T17:53:01.388Z,100336.09
2018-06-08T17:55:31.849Z,100341.94
2018-06-08T17:58:02.131Z,100336.61
2018-06-08T18:00:35.883Z,100328.15
2018-06-08T18:03:06.264Z,100329.03
2018-06-08T18:05:36.551Z,100325.28
2018-06-08T18:08:06.954Z,100324.48
2018-06-08T18:10:40.543Z,100321.88
2018-06-08T18:13:15.914Z,100325.10
2018-06-08T18:15:49.946Z,100335.86
2018-06-08T18:18:20.465Z,100328.69
2018-06-08T18:21:22.049Z,100334.12
2018-06-08T18:24:00.497Z,100335.09
2018-06-08T18:26:40.387Z,100334.17
2018-06-08T18:29:11.224Z,100329.33
2018-06-08T18:31:45.895Z,100330.86
2018-06-08T18:34:17.322Z,100330.42
2018-06-08T18:36:49.794Z,100333.26
2018-06-08T18:39:51.788Z,100332.25
2018-06-08T18:42:38.241Z,100331.52
2018-06-08T19:17:34.479Z,100349.26
2018-06-08T19:20:10.628Z,100352.85
2018-06-08T19:22:56.438Z,100355.15
2018-06-08T19:25:32.824Z,100350.98
2018-06-08T19:34:36.911Z,100334.88
2018-06-08T19:37:14.873Z,100338.30
2018-06-08T19:39:48.121Z,100336.34
2018-06-08T19:42:22.635Z,100322.72
2018-06-08T19:44:56.269Z,100323.20
2018-06-08T19:47:26.798Z,100316.45
2018-06-08T19:49:58.749Z,100312.20
2018-06-08T19:52:30.014Z,100318.93
2018-06-08T19:55:01.826Z,100314.84
2018-06-08T19:57:33.402Z,100308.25
2018-06-08T20:00:04.883Z,100307.34
2018-06-08T20:02:35.211Z,100298.41
2018-06-08T20:05:05.746Z,100293.45
2018-06-08T20:07:36.235Z,100303.48
2018-06-08T20:10:09.936Z,100294.64
2018-06-08T20:12:40.476Z,100303.80
2018-06-08T20:15:11.039Z,100300.30
2018-06-08T20:17:41.463Z,100301.95
2018-06-08T20:20:13.436Z,100302.63
2018-06-08T20:22:43.889Z,100298.38
2018-06-08T20:25:14.260Z,100293.45
2018-06-08T20:27:44.204Z,100289.53
2018-06-08T20:30:17.635Z,100286.78
2018-06-08T20:32:48.193Z,100283.08
2018-06-08T20:35:18.358Z,100279.47
2018-06-08T20:37:49.351Z,100275.36
2018-06-08T20:40:23.009Z,100268.81
2018-06-08T20:42:53.423Z,100268.09
2018-06-08T20:45:23.961Z,100262.80
2018-06-08T20:47:54.467Z,100258.23
2018-06-08T20:50:25.956Z,100262.36
2018-06-08T20:52:56.424Z,100251.98
2018-06-08T20:55:27.186Z,100246.35
2018-06-08T20:57:57.363Z,100245.12
2018-06-08T21:00:27.922Z,100241.98
2018-06-08T21:02:58.483Z,100241.10
2018-06-08T21:05:28.974Z,100234.98
2018-06-08T21:07:59.343Z,100226.97
2018-06-08T21:10:29.767Z,100221.14
2018-06-08T21:13:00.029Z,100221.10
2018-06-08T21:15:30.696Z,100221.90
2018-06-08T21:18:03.972Z,100222.67
2018-06-08T21:20:40.222Z,100222.47
2018-06-08T21:23:10.815Z,100215.81
2018-06-08T21:25:41.653Z,100209.42
2018-06-08T21:28:13.366Z,100208.89
2018-06-08T21:30:43.683Z,100208.89
2018-06-08T21:33:14.731Z,100196.11
2018-06-08T21:35:45.211Z,100190.02
2018-06-08T21:38:15.722Z,100193.61
2018-06-08T21:40:46.473Z,100187.13
2018-06-08T21:43:18.007Z,100186.88
2018-06-08T21:45:49.017Z,100180.44
2018-06-08T21:48:19.496Z,100179.16
2018-06-08T21:50:52.978Z,100180.23
2018-06-08T21:53:23.420Z,100177.36
2018-06-08T21:55:54.046Z,100167.48
2018-06-08T21:58:25.888Z,100173.81
2018-06-08T22:00:56.263Z,100172.00
2018-06-08T22:03:26.717Z,100166.79
2018-06-08T22:05:57.295Z,100175.23
2018-06-08T22:08:27.917Z,100172.30
2018-06-08T22:10:58.892Z,100177.78
2018-06-08T22:13:29.449Z,100169.70
2018-06-08T22:15:59.981Z,100165.89
2018-06-08T22:18:30.559Z,100168.21
2018-06-08T22:21:03.633Z,100163.80
2018-06-08T22:23:35.264Z,100156.63
2018-06-08T22:26:05.620Z,100157.67
2018-06-08T22:28:35.990Z,100151.25
2018-06-08T22:31:06.530Z,100155.56
2018-06-08T22:33:47.866Z,100159.85
2018-06-08T22:36:24.069Z,100163.28
2018-06-08T22:38:54.385Z,100160.76
2018-06-08T22:41:25.317Z,100165.90
2018-06-08T22:43:57.342Z,100162.05
2018-06-08T22:46:28.063Z,100169.41
2018-06-08T22:48:59.335Z,100158.52
2018-06-08T22:51:30.964Z,100157.98
2018-06-08T22:54:01.796Z,100167.05
2018-06-08T22:56:32.889Z,100159.77
2018-06-08T22:59:03.904Z,100160.92
2018-06-08T23:01:35.654Z,100151.97
2018-06-08T23:04:06.279Z,100156.90
2018-06-08T23:06:38.967Z,100146.69
2018-06-08T23:09:09.852Z,100146.23
2018-06-08T23:11:41.447Z,100143.04
2018-06-08T23:14:14.975Z,100149.25
2018-06-08T23:19:28.159Z,100139.31
2018-06-08T23:21:58.591Z,100134.00
2018-06-08T23:24:29.279Z,100132.80
2018-06-08T23:26:59.782Z,100130.58
2018-06-08T23:29:30.699Z,100135.25
2018-06-08T23:32:01.549Z,100131.75
2018-06-08T23:34:34.539Z,100132.59
2018-06-08T23:37:13.688Z,100125.33
2018-06-08T23:39:44.708Z,100122.70
2018-06-08T23:42:15.614Z,100123.83
2018-06-08T23:44:46.643Z,100120.23
2018-06-08T23:47:17.179Z,100114.50
2018-06-08T23:49:48.578Z,100112.17
2018-06-08T23:52:19.065Z,100118.52
2018-06-08T23:54:49.784Z,100120.40
2018-06-08T23:57:21.548Z,100116.59
2018-06-08T23:59:52.123Z,100117.72
